sensor_id;sensor_type;location;lat;lon;timestamp;P1;durP1;ratioP1;P2;durP2;ratioP2
3447;SDS011;1738;49.500;17.736;2023-11-21T00:01:33;5.30;;;3.67;;
3447;SDS011;1738;49.500;17.736;2023-11-21T00:03:58;17.30;;;3.93;;
3447;SDS011;1738;49.500;17.736;2023-11-21T00:06:24;9.52;;;4.65;;
3447;SDS011;1738;49.500;17.736;2023-11-21T00:08:50;12.10;;;5.13;;
3447;SDS011;1738;49.500;17.736;2023-11-21T00:11:16;5.27;;;3.93;;
3447;SDS011;1738;49.500;17.736;2023-11-21T00:13:42;7.30;;;3.27;;
3447;SDS011;1738;49.500;17.736;2023-11-21T00:16:08;5.93;;;3.83;;
3447;SDS011;1738;49.500;17.736;2023-11-21T00:18:34;7.87;;;3.90;;
3447;SDS011;1738;49.500;17.736;2023-11-21T00:20:59;10.20;;;4.17;;
3447;SDS011;1738;49.500;17.736;2023-11-21T00:23:25;5.83;;;3.60;;
3447;SDS011;1738;49.500;17.736;2023-11-21T00:25:51;6.40;;;3.90;;
3447;SDS011;1738;49.500;17.736;2023-11-21T00:28:17;6.20;;;3.67;;
3447;SDS011;1738;49.500;17.736;2023-11-21T00:30:43;6.60;;;3.50;;
3447;SDS011;1738;49.500;17.736;2023-11-21T00:33:09;7.27;;;4.10;;
3447;SDS011;1738;49.500;17.736;2023-11-21T00:35:34;5.10;;;3.63;;
3447;SDS011;1738;49.500;17.736;2023-11-21T00:38:00;8.02;;;3.78;;
3447;SDS011;1738;49.500;17.736;2023-11-21T00:40:26;5.73;;;3.40;;
3447;SDS011;1738;49.500;17.736;2023-11-21T00:42:52;13.53;;;3.77;;
3447;SDS011;1738;49.500;17.736;2023-11-21T00:45:18;10.43;;;5.62;;
3447;SDS011;1738;49.500;17.736;2023-11-21T00:47:44;8.07;;;4.07;;
3447;SDS011;1738;49.500;17.736;2023-11-21T00:50:09;5.57;;;3.50;;
3447;SDS011;1738;49.500;17.736;2023-11-21T00:52:35;6.97;;;4.07;;
3447;SDS011;1738;49.500;17.736;2023-11-21T00:55:01;9.17;;;4.07;;
3447;SDS011;1738;49.500;17.736;2023-11-21T00:57:27;6.33;;;4.23;;
3447;SDS011;1738;49.500;17.736;2023-11-21T00:59:53;7.90;;;4.50;;
3447;SDS011;1738;49.500;17.736;2023-11-21T01:02:19;8.80;;;4.50;;
3447;SDS011;1738;49.500;17.736;2023-11-21T01:04:44;8.57;;;4.70;;
3447;SDS011;1738;49.500;17.736;2023-11-21T01:07:10;8.77;;;4.60;;
3447;SDS011;1738;49.500;17.736;2023-11-21T01:09:36;7.47;;;3.87;;
3447;SDS011;1738;49.500;17.736;2023-11-21T01:12:02;6.68;;;3.58;;
3447;SDS011;1738;49.500;17.736;2023-11-21T01:14:28;6.30;;;4.17;;
3447;SDS011;1738;49.500;17.736;2023-11-21T01:16:54;9.60;;;4.80;;
3447;SDS011;1738;49.500;17.736;2023-11-21T01:19:20;9.13;;;4.73;;
3447;SDS011;1738;49.500;17.736;2023-11-21T01:21:46;8.10;;;3.90;;
3447;SDS011;1738;49.500;17.736;2023-11-21T01:24:11;7.93;;;3.30;;
3447;SDS011;1738;49.500;17.736;2023-11-21T01:26:37;5.77;;;3.60;;
3447;SDS011;1738;49.500;17.736;2023-11-21T01:29:03;6.03;;;4.30;;
3447;SDS011;1738;49.500;17.736;2023-11-21T01:31:29;7.87;;;3.90;;
3447;SDS011;1738;49.500;17.736;2023-11-21T01:33:56;6.40;;;3.67;;
3447;SDS011;1738;49.500;17.736;2023-11-21T01:36:21;7.67;;;3.50;;
3447;SDS011;1738;49.500;17.736;2023-11-21T01:38:47;10.33;;;3.73;;
3447;SDS011;1738;49.500;17.736;2023-11-21T01:41:14;7.00;;;4.37;;
3447;SDS011;1738;49.500;17.736;2023-11-21T01:43:40;9.13;;;4.20;;
3447;SDS011;1738;49.500;17.736;2023-11-21T01:46:06;4.40;;;3.30;;
3447;SDS011;1738;49.500;17.736;2023-11-21T01:48:32;11.13;;;3.70;;
3447;SDS011;1738;49.500;17.736;2023-11-21T01:50:57;7.35;;;4.40;;
3447;SDS011;1738;49.500;17.736;2023-11-21T01:53:24;6.60;;;3.77;;
3447;SDS011;1738;49.500;17.736;2023-11-21T01:55:49;5.50;;;3.77;;
3447;SDS011;1738;49.500;17.736;2023-11-21T01:58:15;6.97;;;4.00;;
3447;SDS011;1738;49.500;17.736;2023-11-21T02:00:41;6.83;;;3.80;;
3447;SDS011;1738;49.500;17.736;2023-11-21T02:03:06;8.43;;;4.93;;
3447;SDS011;1738;49.500;17.736;2023-11-21T02:05:32;7.40;;;4.33;;
3447;SDS011;1738;49.500;17.736;2023-11-21T02:07:58;16.30;;;4.50;;
3447;SDS011;1738;49.500;17.736;2023-11-21T02:10:24;4.90;;;3.80;;
3447;SDS011;1738;49.500;17.736;2023-11-21T02:12:50;5.73;;;4.00;;
3447;SDS011;1738;49.500;17.736;2023-11-21T02:15:16;6.65;;;4.28;;
3447;SDS011;1738;49.500;17.736;2023-11-21T02:17:42;6.20;;;3.73;;
3447;SDS011;1738;49.500;17.736;2023-11-21T02:20:10;11.80;;;4.77;;
3447;SDS011;1738;49.500;17.736;2023-11-21T02:22:35;9.63;;;4.40;;
3447;SDS011;1738;49.500;17.736;2023-11-21T02:25:01;9.90;;;4.30;;
3447;SDS011;1738;49.500;17.736;2023-11-21T02:27:27;8.43;;;4.17;;
3447;SDS011;1738;49.500;17.736;2023-11-21T02:29:53;8.10;;;4.20;;
3447;SDS011;1738;49.500;17.736;2023-11-21T02:32:19;9.95;;;3.95;;
3447;SDS011;1738;49.500;17.736;2023-11-21T02:34:45;11.90;;;5.17;;
3447;SDS011;1738;49.500;17.736;2023-11-21T02:37:11;7.27;;;4.83;;
3447;SDS011;1738;49.500;17.736;2023-11-21T02:39:37;7.75;;;4.57;;
3447;SDS011;1738;49.500;17.736;2023-11-21T02:42:03;7.37;;;3.77;;
3447;SDS011;1738;49.500;17.736;2023-11-21T02:44:29;8.93;;;4.30;;
3447;SDS011;1738;49.500;17.736;2023-11-21T02:46:54;7.13;;;4.03;;
3447;SDS011;1738;49.500;17.736;2023-11-21T02:49:20;7.10;;;4.10;;
3447;SDS011;1738;49.500;17.736;2023-11-21T02:51:46;8.20;;;4.07;;
3447;SDS011;1738;49.500;17.736;2023-11-21T02:54:12;6.60;;;3.60;;
3447;SDS011;1738;49.500;17.736;2023-11-21T02:56:38;9.40;;;3.87;;
3447;SDS011;1738;49.500;17.736;2023-11-21T02:59:04;5.67;;;3.70;;
3447;SDS011;1738;49.500;17.736;2023-11-21T03:01:29;7.90;;;3.87;;
3447;SDS011;1738;49.500;17.736;2023-11-21T03:03:55;5.80;;;3.80;;
3447;SDS011;1738;49.500;17.736;2023-11-21T03:06:21;11.00;;;3.80;;
3447;SDS011;1738;49.500;17.736;2023-11-21T03:08:47;11.30;;;4.33;;
3447;SDS011;1738;49.500;17.736;2023-11-21T03:11:13;7.77;;;4.07;;
3447;SDS011;1738;49.500;17.736;2023-11-21T03:13:39;10.50;;;4.80;;
3447;SDS011;1738;49.500;17.736;2023-11-21T03:16:05;5.60;;;3.43;;
3447;SDS011;1738;49.500;17.736;2023-11-21T03:18:31;9.80;;;4.70;;
3447;SDS011;1738;49.500;17.736;2023-11-21T03:20:56;8.93;;;4.50;;
3447;SDS011;1738;49.500;17.736;2023-11-21T03:23:22;10.10;;;4.70;;
3447;SDS011;1738;49.500;17.736;2023-11-21T03:25:48;6.37;;;3.70;;
3447;SDS011;1738;49.500;17.736;2023-11-21T03:28:15;5.80;;;3.87;;
3447;SDS011;1738;49.500;17.736;2023-11-21T03:30:40;6.30;;;3.70;;
3447;SDS011;1738;49.500;17.736;2023-11-21T03:33:06;6.50;;;3.60;;
3447;SDS011;1738;49.500;17.736;2023-11-21T03:35:32;10.30;;;4.20;;
3447;SDS011;1738;49.500;17.736;2023-11-21T03:37:58;8.87;;;4.40;;
3447;SDS011;1738;49.500;17.736;2023-11-21T03:40:24;6.33;;;3.83;;
3447;SDS011;1738;49.500;17.736;2023-11-21T03:42:50;7.20;;;4.90;;
3447;SDS011;1738;49.500;17.736;2023-11-21T03:45:15;5.40;;;4.10;;
3447;SDS011;1738;49.500;17.736;2023-11-21T03:47:42;9.93;;;5.03;;
3447;SDS011;1738;49.500;17.736;2023-11-21T03:50:07;7.00;;;4.37;;
3447;SDS011;1738;49.500;17.736;2023-11-21T03:52:33;9.20;;;4.93;;
3447;SDS011;1738;49.500;17.736;2023-11-21T03:54:59;8.20;;;4.60;;
3447;SDS011;1738;49.500;17.736;2023-11-21T03:57:25;5.97;;;4.37;;
3447;SDS011;1738;49.500;17.736;2023-11-21T03:59:51;9.30;;;3.73;;
3447;SDS011;1738;49.500;17.736;2023-11-21T04:02:17;7.57;;;3.93;;
3447;SDS011;1738;49.500;17.736;2023-11-21T04:04:42;8.43;;;4.30;;
3447;SDS011;1738;49.500;17.736;2023-11-21T04:07:08;5.87;;;3.90;;
3447;SDS011;1738;49.500;17.736;2023-11-21T04:09:34;6.80;;;3.43;;
3447;SDS011;1738;49.500;17.736;2023-11-21T04:12:00;7.50;;;3.57;;
3447;SDS011;1738;49.500;17.736;2023-11-21T04:14:26;11.30;;;3.80;;
3447;SDS011;1738;49.500;17.736;2023-11-21T04:16:52;4.78;;;3.85;;
3447;SDS011;1738;49.500;17.736;2023-11-21T04:19:17;7.00;;;4.03;;
3447;SDS011;1738;49.500;17.736;2023-11-21T04:21:43;4.67;;;3.43;;
3447;SDS011;1738;49.500;17.736;2023-11-21T04:24:10;9.23;;;4.72;;
3447;SDS011;1738;49.500;17.736;2023-11-21T04:26:36;6.07;;;4.60;;
3447;SDS011;1738;49.500;17.736;2023-11-21T04:29:01;10.10;;;4.73;;
3447;SDS011;1738;49.500;17.736;2023-11-21T04:31:27;8.10;;;5.37;;
3447;SDS011;1738;49.500;17.736;2023-11-21T04:33:53;7.50;;;4.97;;
3447;SDS011;1738;49.500;17.736;2023-11-21T04:36:19;9.50;;;5.63;;
3447;SDS011;1738;49.500;17.736;2023-11-21T04:38:45;8.03;;;4.53;;
3447;SDS011;1738;49.500;17.736;2023-11-21T04:41:11;6.70;;;5.23;;
3447;SDS011;1738;49.500;17.736;2023-11-21T04:43:36;9.10;;;5.50;;
3447;SDS011;1738;49.500;17.736;2023-11-21T04:46:02;8.57;;;4.60;;
3447;SDS011;1738;49.500;17.736;2023-11-21T04:48:28;8.13;;;4.00;;
3447;SDS011;1738;49.500;17.736;2023-11-21T04:50:54;14.33;;;4.10;;
3447;SDS011;1738;49.500;17.736;2023-11-21T04:53:20;6.87;;;4.60;;
3447;SDS011;1738;49.500;17.736;2023-11-21T04:55:46;8.43;;;3.93;;
3447;SDS011;1738;49.500;17.736;2023-11-21T04:58:11;5.80;;;4.10;;
3447;SDS011;1738;49.500;17.736;2023-11-21T05:00:37;4.73;;;3.20;;
3447;SDS011;1738;49.500;17.736;2023-11-21T05:03:03;6.67;;;4.10;;
3447;SDS011;1738;49.500;17.736;2023-11-21T05:05:29;6.00;;;3.60;;
3447;SDS011;1738;49.500;17.736;2023-11-21T05:07:56;6.17;;;3.43;;
3447;SDS011;1738;49.500;17.736;2023-11-21T05:10:21;5.43;;;3.70;;
3447;SDS011;1738;49.500;17.736;2023-11-21T05:12:47;5.68;;;3.35;;
3447;SDS011;1738;49.500;17.736;2023-11-21T05:15:14;7.13;;;4.10;;
3447;SDS011;1738;49.500;17.736;2023-11-21T05:17:39;5.27;;;3.43;;
3447;SDS011;1738;49.500;17.736;2023-11-21T05:20:08;7.87;;;4.20;;
3447;SDS011;1738;49.500;17.736;2023-11-21T05:22:34;7.77;;;3.30;;
3447;SDS011;1738;49.500;17.736;2023-11-21T05:25:00;5.03;;;3.07;;
3447;SDS011;1738;49.500;17.736;2023-11-21T05:27:25;9.90;;;3.83;;
3447;SDS011;1738;49.500;17.736;2023-11-21T05:29:51;6.67;;;3.50;;
3447;SDS011;1738;49.500;17.736;2023-11-21T05:32:17;4.60;;;3.33;;
3447;SDS011;1738;49.500;17.736;2023-11-21T05:34:43;9.63;;;3.60;;
3447;SDS011;1738;49.500;17.736;2023-11-21T05:37:09;6.23;;;4.27;;
3447;SDS011;1738;49.500;17.736;2023-11-21T05:39:35;6.67;;;3.83;;
3447;SDS011;1738;49.500;17.736;2023-11-21T05:42:01;10.50;;;4.47;;
3447;SDS011;1738;49.500;17.736;2023-11-21T05:44:26;5.60;;;3.40;;
3447;SDS011;1738;49.500;17.736;2023-11-21T05:46:52;6.90;;;4.27;;
3447;SDS011;1738;49.500;17.736;2023-11-21T05:49:18;6.27;;;4.17;;
3447;SDS011;1738;49.500;17.736;2023-11-21T05:51:44;5.17;;;3.27;;
3447;SDS011;1738;49.500;17.736;2023-11-21T05:54:10;8.50;;;3.67;;
3447;SDS011;1738;49.500;17.736;2023-11-21T05:56:36;7.20;;;4.17;;
3447;SDS011;1738;49.500;17.736;2023-11-21T05:59:02;6.07;;;3.53;;
3447;SDS011;1738;49.500;17.736;2023-11-21T06:01:28;5.33;;;4.20;;
3447;SDS011;1738;49.500;17.736;2023-11-21T06:03:54;7.10;;;3.33;;
3447;SDS011;1738;49.500;17.736;2023-11-21T06:06:19;6.87;;;3.20;;
3447;SDS011;1738;49.500;17.736;2023-11-21T06:08:46;3.95;;;3.00;;
3447;SDS011;1738;49.500;17.736;2023-11-21T06:11:12;13.50;;;3.63;;
3447;SDS011;1738;49.500;17.736;2023-11-21T06:13:38;8.80;;;4.30;;
3447;SDS011;1738;49.500;17.736;2023-11-21T06:16:04;4.83;;;3.20;;
3447;SDS011;1738;49.500;17.736;2023-11-21T06:18:30;8.80;;;4.33;;
3447;SDS011;1738;49.500;17.736;2023-11-21T06:20:56;8.80;;;5.60;;
3447;SDS011;1738;49.500;17.736;2023-11-21T06:23:21;7.00;;;4.57;;
3447;SDS011;1738;49.500;17.736;2023-11-21T06:25:47;8.20;;;4.87;;
3447;SDS011;1738;49.500;17.736;2023-11-21T06:28:13;8.10;;;4.80;;
3447;SDS011;1738;49.500;17.736;2023-11-21T06:30:39;9.17;;;5.17;;
3447;SDS011;1738;49.500;17.736;2023-11-21T06:33:05;14.07;;;6.47;;
3447;SDS011;1738;49.500;17.736;2023-11-21T06:35:31;8.23;;;6.30;;
3447;SDS011;1738;49.500;17.736;2023-11-21T06:37:57;10.70;;;6.07;;
3447;SDS011;1738;49.500;17.736;2023-11-21T06:40:22;18.83;;;7.17;;
3447;SDS011;1738;49.500;17.736;2023-11-21T06:42:48;17.33;;;6.37;;
3447;SDS011;1738;49.500;17.736;2023-11-21T06:45:15;11.47;;;5.90;;
3447;SDS011;1738;49.500;17.736;2023-11-21T06:47:40;11.97;;;6.83;;
3447;SDS011;1738;49.500;17.736;2023-11-21T06:50:07;15.57;;;6.90;;
3447;SDS011;1738;49.500;17.736;2023-11-21T06:52:33;15.73;;;7.20;;
3447;SDS011;1738;49.500;17.736;2023-11-21T06:54:59;16.60;;;8.13;;
3447;SDS011;1738;49.500;17.736;2023-11-21T06:57:25;11.17;;;5.10;;
3447;SDS011;1738;49.500;17.736;2023-11-21T06:59:50;7.60;;;4.90;;
3447;SDS011;1738;49.500;17.736;2023-11-21T07:02:16;8.20;;;4.90;;
3447;SDS011;1738;49.500;17.736;2023-11-21T07:04:42;11.40;;;5.67;;
3447;SDS011;1738;49.500;17.736;2023-11-21T07:07:08;8.63;;;5.63;;
3447;SDS011;1738;49.500;17.736;2023-11-21T07:09:34;14.70;;;6.53;;
3447;SDS011;1738;49.500;17.736;2023-11-21T07:12:00;8.77;;;5.28;;
3447;SDS011;1738;49.500;17.736;2023-11-21T07:14:25;11.53;;;5.30;;
3447;SDS011;1738;49.500;17.736;2023-11-21T07:16:51;9.63;;;5.60;;
3447;SDS011;1738;49.500;17.736;2023-11-21T07:19:17;9.50;;;5.47;;
3447;SDS011;1738;49.500;17.736;2023-11-21T07:21:43;8.77;;;5.60;;
3447;SDS011;1738;49.500;17.736;2023-11-21T07:24:09;11.00;;;4.33;;
3447;SDS011;1738;49.500;17.736;2023-11-21T07:26:35;10.07;;;5.90;;
3447;SDS011;1738;49.500;17.736;2023-11-21T07:29:01;10.30;;;6.07;;
3447;SDS011;1738;49.500;17.736;2023-11-21T07:31:26;7.90;;;5.03;;
3447;SDS011;1738;49.500;17.736;2023-11-21T07:33:52;12.83;;;5.43;;
3447;SDS011;1738;49.500;17.736;2023-11-21T07:36:19;6.20;;;4.37;;
3447;SDS011;1738;49.500;17.736;2023-11-21T07:38:47;8.17;;;4.97;;
3447;SDS011;1738;49.500;17.736;2023-11-21T07:41:13;8.77;;;4.77;;
3447;SDS011;1738;49.500;17.736;2023-11-21T07:43:41;7.13;;;5.00;;
3447;SDS011;1738;49.500;17.736;2023-11-21T07:46:07;7.50;;;4.93;;
3447;SDS011;1738;49.500;17.736;2023-11-21T07:48:33;9.47;;;3.97;;
3447;SDS011;1738;49.500;17.736;2023-11-21T07:50:59;8.60;;;4.28;;
3447;SDS011;1738;49.500;17.736;2023-11-21T07:53:24;6.23;;;4.20;;
3447;SDS011;1738;49.500;17.736;2023-11-21T07:55:51;7.67;;;5.37;;
3447;SDS011;1738;49.500;17.736;2023-11-21T07:58:17;8.30;;;4.57;;
3447;SDS011;1738;49.500;17.736;2023-11-21T08:00:43;7.43;;;4.50;;
3447;SDS011;1738;49.500;17.736;2023-11-21T08:03:08;11.37;;;5.63;;
3447;SDS011;1738;49.500;17.736;2023-11-21T08:05:34;9.20;;;5.37;;
3447;SDS011;1738;49.500;17.736;2023-11-21T08:08:00;7.33;;;4.30;;
3447;SDS011;1738;49.500;17.736;2023-11-21T08:10:26;8.00;;;5.30;;
3447;SDS011;1738;49.500;17.736;2023-11-21T08:12:52;8.77;;;4.67;;
3447;SDS011;1738;49.500;17.736;2023-11-21T08:15:18;8.75;;;4.78;;
3447;SDS011;1738;49.500;17.736;2023-11-21T08:17:44;12.37;;;5.37;;
3447;SDS011;1738;49.500;17.736;2023-11-21T08:20:10;7.90;;;5.30;;
3447;SDS011;1738;49.500;17.736;2023-11-21T08:22:36;5.93;;;4.13;;
3447;SDS011;1738;49.500;17.736;2023-11-21T08:25:02;11.47;;;5.30;;
3447;SDS011;1738;49.500;17.736;2023-11-21T08:27:27;10.87;;;6.03;;
3447;SDS011;1738;49.500;17.736;2023-11-21T08:29:53;14.13;;;5.70;;
3447;SDS011;1738;49.500;17.736;2023-11-21T08:32:19;12.13;;;5.27;;
3447;SDS011;1738;49.500;17.736;2023-11-21T08:34:45;10.60;;;5.77;;
3447;SDS011;1738;49.500;17.736;2023-11-21T08:37:11;7.93;;;5.03;;
3447;SDS011;1738;49.500;17.736;2023-11-21T08:39:37;8.00;;;4.87;;
3447;SDS011;1738;49.500;17.736;2023-11-21T08:42:03;5.93;;;4.03;;
3447;SDS011;1738;49.500;17.736;2023-11-21T08:44:29;9.57;;;5.03;;
3447;SDS011;1738;49.500;17.736;2023-11-21T08:46:55;9.88;;;4.75;;
3447;SDS011;1738;49.500;17.736;2023-11-21T08:49:20;9.37;;;5.53;;
3447;SDS011;1738;49.500;17.736;2023-11-21T08:51:46;6.90;;;4.50;;
3447;SDS011;1738;49.500;17.736;2023-11-21T08:54:12;5.80;;;4.50;;
3447;SDS011;1738;49.500;17.736;2023-11-21T08:56:38;8.27;;;4.60;;
3447;SDS011;1738;49.500;17.736;2023-11-21T08:59:04;9.93;;;4.70;;
3447;SDS011;1738;49.500;17.736;2023-11-21T09:01:31;5.23;;;4.13;;
3447;SDS011;1738;49.500;17.736;2023-11-21T09:03:57;6.83;;;4.30;;
3447;SDS011;1738;49.500;17.736;2023-11-21T09:06:22;7.93;;;4.80;;
3447;SDS011;1738;49.500;17.736;2023-11-21T09:08:48;11.33;;;5.30;;
3447;SDS011;1738;49.500;17.736;2023-11-21T09:11:14;9.43;;;6.00;;
3447;SDS011;1738;49.500;17.736;2023-11-21T09:13:40;5.60;;;4.23;;
3447;SDS011;1738;49.500;17.736;2023-11-21T09:16:06;8.40;;;4.90;;
3447;SDS011;1738;49.500;17.736;2023-11-21T09:18:32;6.43;;;4.93;;
3447;SDS011;1738;49.500;17.736;2023-11-21T09:20:58;7.03;;;4.17;;
3447;SDS011;1738;49.500;17.736;2023-11-21T09:23:24;6.33;;;3.70;;
3447;SDS011;1738;49.500;17.736;2023-11-21T09:25:49;9.90;;;5.10;;
3447;SDS011;1738;49.500;17.736;2023-11-21T09:28:15;9.77;;;3.95;;
3447;SDS011;1738;49.500;17.736;2023-11-21T09:30:41;8.60;;;4.77;;
3447;SDS011;1738;49.500;17.736;2023-11-21T09:33:07;6.50;;;4.70;;
3447;SDS011;1738;49.500;17.736;2023-11-21T09:35:33;7.50;;;5.07;;
3447;SDS011;1738;49.500;17.736;2023-11-21T09:37:58;9.57;;;4.67;;
3447;SDS011;1738;49.500;17.736;2023-11-21T09:40:24;10.27;;;3.60;;
3447;SDS011;1738;49.500;17.736;2023-11-21T09:42:54;6.43;;;4.13;;
3447;SDS011;1738;49.500;17.736;2023-11-21T09:45:21;7.37;;;4.83;;
3447;SDS011;1738;49.500;17.736;2023-11-21T09:47:44;8.17;;;4.80;;
3447;SDS011;1738;49.500;17.736;2023-11-21T09:50:10;12.77;;;5.10;;
3447;SDS011;1738;49.500;17.736;2023-11-21T09:52:44;6.60;;;4.40;;
3447;SDS011;1738;49.500;17.736;2023-11-21T09:55:06;6.30;;;4.60;;
3447;SDS011;1738;49.500;17.736;2023-11-21T09:57:32;9.23;;;4.67;;
3447;SDS011;1738;49.500;17.736;2023-11-21T09:59:58;10.00;;;4.80;;
3447;SDS011;1738;49.500;17.736;2023-11-21T10:02:25;6.50;;;4.27;;
3447;SDS011;1738;49.500;17.736;2023-11-21T10:04:50;5.90;;;4.10;;
3447;SDS011;1738;49.500;17.736;2023-11-21T10:07:16;9.40;;;4.97;;
3447;SDS011;1738;49.500;17.736;2023-11-21T10:09:42;7.37;;;4.57;;
3447;SDS011;1738;49.500;17.736;2023-11-21T10:12:08;6.90;;;3.63;;
3447;SDS011;1738;49.500;17.736;2023-11-21T10:14:34;9.37;;;4.93;;
3447;SDS011;1738;49.500;17.736;2023-11-21T10:17:00;6.87;;;4.57;;
3447;SDS011;1738;49.500;17.736;2023-11-21T10:19:25;11.57;;;5.13;;
3447;SDS011;1738;49.500;17.736;2023-11-21T10:21:51;12.27;;;5.70;;
3447;SDS011;1738;49.500;17.736;2023-11-21T10:24:17;7.93;;;5.27;;
3447;SDS011;1738;49.500;17.736;2023-11-21T10:26:43;11.43;;;5.30;;
3447;SDS011;1738;49.500;17.736;2023-11-21T10:29:09;7.70;;;5.43;;
3447;SDS011;1738;49.500;17.736;2023-11-21T10:31:35;7.10;;;5.23;;
3447;SDS011;1738;49.500;17.736;2023-11-21T10:36:33;7.13;;;4.47;;
3447;SDS011;1738;49.500;17.736;2023-11-21T10:38:59;6.87;;;4.60;;
3447;SDS011;1738;49.500;17.736;2023-11-21T10:41:24;10.80;;;4.47;;
3447;SDS011;1738;49.500;17.736;2023-11-21T10:43:52;6.03;;;4.53;;
3447;SDS011;1738;49.500;17.736;2023-11-21T10:46:16;15.03;;;4.20;;
3447;SDS011;1738;49.500;17.736;2023-11-21T10:48:42;9.63;;;4.47;;
3447;SDS011;1738;49.500;17.736;2023-11-21T10:51:08;6.50;;;3.67;;
3447;SDS011;1738;49.500;17.736;2023-11-21T10:53:34;6.70;;;4.17;;
3447;SDS011;1738;49.500;17.736;2023-11-21T10:56:02;8.27;;;4.40;;
3447;SDS011;1738;49.500;17.736;2023-11-21T10:58:27;7.33;;;4.97;;
3447;SDS011;1738;49.500;17.736;2023-11-21T11:00:53;5.90;;;4.77;;
3447;SDS011;1738;49.500;17.736;2023-11-21T11:03:19;7.73;;;4.53;;
3447;SDS011;1738;49.500;17.736;2023-11-21T11:05:45;9.90;;;4.93;;
3447;SDS011;1738;49.500;17.736;2023-11-21T11:08:12;8.90;;;5.00;;
3447;SDS011;1738;49.500;17.736;2023-11-21T11:10:37;8.23;;;5.50;;
3447;SDS011;1738;49.500;17.736;2023-11-21T11:13:03;9.90;;;5.83;;
3447;SDS011;1738;49.500;17.736;2023-11-21T11:15:29;8.80;;;5.50;;
3447;SDS011;1738;49.500;17.736;2023-11-21T11:17:55;9.77;;;5.60;;
3447;SDS011;1738;49.500;17.736;2023-11-21T11:20:22;25.27;;;5.80;;
3447;SDS011;1738;49.500;17.736;2023-11-21T11:26:42;7.73;;;4.80;;
3447;SDS011;1738;49.500;17.736;2023-11-21T11:28:14;8.70;;;5.13;;
3447;SDS011;1738;49.500;17.736;2023-11-21T11:31:00;8.30;;;4.60;;
3447;SDS011;1738;49.500;17.736;2023-11-21T11:33:33;9.50;;;5.23;;
3447;SDS011;1738;49.500;17.736;2023-11-21T11:36:06;9.37;;;5.53;;
3447;SDS011;1738;49.500;17.736;2023-11-21T11:38:31;10.30;;;5.63;;
3447;SDS011;1738;49.500;17.736;2023-11-21T11:40:56;8.23;;;5.40;;
3447;SDS011;1738;49.500;17.736;2023-11-21T11:43:24;9.90;;;5.33;;
3447;SDS011;1738;49.500;17.736;2023-11-21T11:45:50;11.70;;;5.40;;
3447;SDS011;1738;49.500;17.736;2023-11-21T11:48:16;10.33;;;5.80;;
3447;SDS011;1738;49.500;17.736;2023-11-21T11:50:42;8.90;;;5.15;;
3447;SDS011;1738;49.500;17.736;2023-11-21T11:53:12;7.50;;;4.80;;
3447;SDS011;1738;49.500;17.736;2023-11-21T11:55:37;11.17;;;6.03;;
3447;SDS011;1738;49.500;17.736;2023-11-21T11:58:04;8.13;;;5.40;;
3447;SDS011;1738;49.500;17.736;2023-11-21T12:00:36;8.23;;;5.77;;
3447;SDS011;1738;49.500;17.736;2023-11-21T12:03:03;8.10;;;5.37;;
3447;SDS011;1738;49.500;17.736;2023-11-21T12:05:29;7.13;;;5.70;;
3447;SDS011;1738;49.500;17.736;2023-11-21T12:07:55;7.68;;;5.07;;
3447;SDS011;1738;49.500;17.736;2023-11-21T12:10:21;12.40;;;6.27;;
3447;SDS011;1738;49.500;17.736;2023-11-21T12:12:48;9.50;;;5.20;;
3447;SDS011;1738;49.500;17.736;2023-11-21T12:15:13;8.80;;;5.30;;
3447;SDS011;1738;49.500;17.736;2023-11-21T12:17:39;8.87;;;6.07;;
3447;SDS011;1738;49.500;17.736;2023-11-21T12:20:05;8.53;;;5.37;;
3447;SDS011;1738;49.500;17.736;2023-11-21T12:22:31;8.53;;;5.77;;
3447;SDS011;1738;49.500;17.736;2023-11-21T12:24:57;8.63;;;5.60;;
3447;SDS011;1738;49.500;17.736;2023-11-21T12:27:22;7.43;;;4.70;;
3447;SDS011;1738;49.500;17.736;2023-11-21T12:29:48;10.57;;;4.80;;
3447;SDS011;1738;49.500;17.736;2023-11-21T12:32:14;15.37;;;6.43;;
3447;SDS011;1738;49.500;17.736;2023-11-21T12:34:40;10.63;;;6.90;;
3447;SDS011;1738;49.500;17.736;2023-11-21T12:37:06;7.83;;;6.20;;
3447;SDS011;1738;49.500;17.736;2023-11-21T12:39:32;10.17;;;5.67;;
3447;SDS011;1738;49.500;17.736;2023-11-21T12:41:58;10.32;;;5.00;;
3447;SDS011;1738;49.500;17.736;2023-11-21T12:44:24;8.93;;;5.23;;
3447;SDS011;1738;49.500;17.736;2023-11-21T12:46:50;5.60;;;3.97;;
3447;SDS011;1738;49.500;17.736;2023-11-21T12:49:16;8.20;;;5.70;;
3447;SDS011;1738;49.500;17.736;2023-11-21T12:51:42;12.60;;;5.90;;
3447;SDS011;1738;49.500;17.736;2023-11-21T12:54:07;8.80;;;4.80;;
3447;SDS011;1738;49.500;17.736;2023-11-21T12:56:33;7.30;;;4.30;;
3447;SDS011;1738;49.500;17.736;2023-11-21T12:58:59;9.30;;;5.00;;
3447;SDS011;1738;49.500;17.736;2023-11-21T13:01:25;6.60;;;4.77;;
3447;SDS011;1738;49.500;17.736;2023-11-21T13:03:51;7.17;;;5.30;;
3447;SDS011;1738;49.500;17.736;2023-11-21T13:06:17;10.40;;;5.30;;
3447;SDS011;1738;49.500;17.736;2023-11-21T13:08:43;8.73;;;5.13;;
3447;SDS011;1738;49.500;17.736;2023-11-21T13:11:08;9.50;;;5.10;;
3447;SDS011;1738;49.500;17.736;2023-11-21T13:13:34;6.27;;;4.50;;
3447;SDS011;1738;49.500;17.736;2023-11-21T13:16:00;8.43;;;4.82;;
3447;SDS011;1738;49.500;17.736;2023-11-21T13:18:26;7.80;;;5.60;;
3447;SDS011;1738;49.500;17.736;2023-11-21T13:20:54;8.67;;;6.20;;
3447;SDS011;1738;49.500;17.736;2023-11-21T13:23:19;16.13;;;6.20;;
3447;SDS011;1738;49.500;17.736;2023-11-21T13:25:46;10.50;;;6.20;;
3447;SDS011;1738;49.500;17.736;2023-11-21T13:28:11;13.23;;;6.53;;
3447;SDS011;1738;49.500;17.736;2023-11-21T13:30:37;10.37;;;6.30;;
3447;SDS011;1738;49.500;17.736;2023-11-21T13:33:03;10.57;;;6.27;;
3447;SDS011;1738;49.500;17.736;2023-11-21T13:35:29;7.00;;;5.70;;
3447;SDS011;1738;49.500;17.736;2023-11-21T13:38:03;10.47;;;6.10;;
3447;SDS011;1738;49.500;17.736;2023-11-21T13:40:23;9.80;;;6.43;;
3447;SDS011;1738;49.500;17.736;2023-11-21T13:42:49;7.47;;;5.70;;
3447;SDS011;1738;49.500;17.736;2023-11-21T13:45:15;9.20;;;6.57;;
3447;SDS011;1738;49.500;17.736;2023-11-21T13:47:41;8.37;;;5.93;;
3447;SDS011;1738;49.500;17.736;2023-11-21T13:50:07;8.03;;;6.00;;
3447;SDS011;1738;49.500;17.736;2023-11-21T13:52:33;9.00;;;5.00;;
3447;SDS011;1738;49.500;17.736;2023-11-21T13:54:59;11.83;;;5.57;;
3447;SDS011;1738;49.500;17.736;2023-11-21T13:57:24;7.90;;;5.77;;
3447;SDS011;1738;49.500;17.736;2023-11-21T13:59:50;8.37;;;5.40;;
3447;SDS011;1738;49.500;17.736;2023-11-21T14:02:16;6.93;;;5.70;;
3447;SDS011;1738;49.500;17.736;2023-11-21T14:04:42;10.13;;;6.00;;
3447;SDS011;1738;49.500;17.736;2023-11-21T14:07:14;11.33;;;6.73;;
3447;SDS011;1738;49.500;17.736;2023-11-21T14:09:39;10.02;;;7.35;;
3447;SDS011;1738;49.500;17.736;2023-11-21T14:12:05;10.83;;;6.70;;
3447;SDS011;1738;49.500;17.736;2023-11-21T14:14:31;11.63;;;7.10;;
3447;SDS011;1738;49.500;17.736;2023-11-21T14:16:57;11.87;;;7.33;;
3447;SDS011;1738;49.500;17.736;2023-11-21T14:19:23;13.63;;;6.63;;
3447;SDS011;1738;49.500;17.736;2023-11-21T14:21:49;12.80;;;7.17;;
3447;SDS011;1738;49.500;17.736;2023-11-21T14:24:15;12.03;;;7.20;;
3447;SDS011;1738;49.500;17.736;2023-11-21T14:26:41;12.03;;;8.40;;
3447;SDS011;1738;49.500;17.736;2023-11-21T14:29:06;10.57;;;7.30;;
3447;SDS011;1738;49.500;17.736;2023-11-21T14:31:32;14.10;;;7.77;;
3447;SDS011;1738;49.500;17.736;2023-11-21T14:33:58;12.33;;;7.20;;
3447;SDS011;1738;49.500;17.736;2023-11-21T14:36:24;11.23;;;7.27;;
3447;SDS011;1738;49.500;17.736;2023-11-21T14:38:50;14.50;;;7.67;;
3447;SDS011;1738;49.500;17.736;2023-11-21T14:41:16;12.65;;;8.23;;
3447;SDS011;1738;49.500;17.736;2023-11-21T14:43:41;13.75;;;8.60;;
3447;SDS011;1738;49.500;17.736;2023-11-21T14:46:07;12.93;;;8.40;;
3447;SDS011;1738;49.500;17.736;2023-11-21T14:48:33;8.67;;;7.00;;
3447;SDS011;1738;49.500;17.736;2023-11-21T14:51:09;12.37;;;8.33;;
3447;SDS011;1738;49.500;17.736;2023-11-21T14:53:39;11.97;;;8.10;;
3447;SDS011;1738;49.500;17.736;2023-11-21T14:56:10;10.63;;;7.62;;